createdAt,value
2018-08-24T00:01:42.156Z,74.50
2018-08-24T00:04:09.731Z,74.90
2018-08-24T00:06:39.435Z,75.10
2018-08-24T00:09:09.771Z,74.80
2018-08-24T00:11:37.315Z,74.40
2018-08-24T00:14:04.499Z,73.70
2018-08-24T00:16:36.735Z,74.50
2018-08-24T00:19:05.748Z,74.20
2018-08-24T00:21:32.887Z,74.60
2018-08-24T00:24:00.034Z,74.90
2018-08-24T00:26:27.166Z,75.40
2018-08-24T00:28:54.311Z,75.60
2018-08-24T00:31:21.458Z,75.80
2018-08-24T00:33:52.763Z,76.10
2018-08-24T00:36:21.315Z,76.50
2018-08-24T00:38:48.455Z,76.80
2018-08-24T00:41:15.604Z,77.10
2018-08-24T00:43:42.755Z,77.00
2018-08-24T00:46:09.890Z,77.40
2018-08-24T00:48:37.383Z,77.50
2018-08-24T00:51:04.522Z,77.70
2018-08-24T00:53:31.787Z,77.40
2018-08-24T00:55:58.936Z,77.40
2018-08-24T00:58:26.092Z,77.70
2018-08-24T01:01:01.451Z,77.50
2018-08-24T01:03:29.361Z,78.00
2018-08-24T01:05:56.617Z,78.20
2018-08-24T01:08:23.799Z,78.00
2018-08-24T01:10:50.950Z,78.70
2018-08-24T01:13:18.108Z,78.80
2018-08-24T01:15:53.007Z,79.10
2018-08-24T01:18:21.331Z,79.20
2018-08-24T01:20:49.331Z,80.40
2018-08-24T01:23:17.547Z,80.40
2018-08-24T01:25:44.744Z,81.50
2018-08-24T01:28:11.911Z,81.50
2018-08-24T01:30:39.103Z,81.10
2018-08-24T01:33:06.347Z,80.90
2018-08-24T01:35:33.503Z,80.90
2018-08-24T01:38:00.647Z,80.90
2018-08-24T01:40:27.804Z,80.00
2018-08-24T01:42:54.954Z,80.10
2018-08-24T01:45:22.102Z,80.50
2018-08-24T01:47:49.418Z,80.30
2018-08-24T01:50:16.823Z,80.40
2018-08-24T01:52:43.963Z,81.30
2018-08-24T01:55:11.139Z,81.40
2018-08-24T01:57:38.279Z,81.50
2018-08-24T02:00:05.494Z,81.50
2018-08-24T02:02:32.643Z,82.40
2018-08-24T02:04:59.787Z,82.50
2018-08-24T02:07:27.067Z,82.40
2018-08-24T02:09:54.215Z,82.40
2018-08-24T02:12:27.154Z,82.40
2018-08-24T02:14:55.435Z,81.80
2018-08-24T02:17:28.367Z,81.30
2018-08-24T02:20:01.187Z,81.50
2018-08-24T02:22:28.347Z,82.00
2018-08-24T02:24:55.507Z,82.10
2018-08-24T02:27:22.648Z,81.80
2018-08-24T02:29:54.411Z,81.00
2018-08-24T02:32:21.551Z,81.30
2018-08-24T02:34:48.699Z,81.90
2018-08-24T02:37:15.869Z,82.00
2018-08-24T02:39:43.018Z,82.00
2018-08-24T02:42:10.151Z,82.30
2018-08-24T02:44:37.303Z,82.20
2018-08-24T02:47:04.483Z,81.90
2018-08-24T02:49:31.631Z,82.10
2018-08-24T02:51:58.767Z,82.20
2018-08-24T02:54:25.954Z,82.40
2018-08-24T02:56:53.116Z,83.20
2018-08-24T02:59:20.250Z,83.50
2018-08-24T03:01:47.426Z,82.80
2018-08-24T03:04:14.570Z,82.50
2018-08-24T03:06:41.843Z,81.60
2018-08-24T03:09:09.983Z,82.20
2018-08-24T03:11:37.155Z,83.30
2018-08-24T03:14:04.300Z,84.60
2018-08-24T03:16:31.461Z,86.20
2018-08-24T03:18:58.612Z,86.10
2018-08-24T03:21:25.761Z,85.90
2018-08-24T03:23:52.895Z,86.00
2018-08-24T03:26:20.044Z,85.80
2018-08-24T03:28:47.198Z,85.50
2018-08-24T03:31:14.361Z,85.00
2018-08-24T03:33:41.506Z,84.70
2018-08-24T03:36:08.650Z,84.70
2018-08-24T03:38:35.806Z,85.10
2018-08-24T03:41:03.084Z,85.00
2018-08-24T03:43:30.227Z,85.30
2018-08-24T03:45:57.466Z,85.60
2018-08-24T03:48:24.552Z,85.60
2018-08-24T03:50:51.694Z,85.40
2018-08-24T03:53:18.843Z,85.30
2018-08-24T03:55:46.028Z,85.50
2018-08-24T03:58:13.198Z,85.20
2018-08-24T04:00:40.377Z,85.30
2018-08-24T04:03:07.691Z,85.40
2018-08-24T04:05:34.858Z,86.60
2018-08-24T04:08:01.998Z,86.20
2018-08-24T04:10:29.159Z,86.20
2018-08-24T04:12:56.860Z,86.70
2018-08-24T04:15:24.375Z,86.80
2018-08-24T04:17:51.534Z,86.70
2018-08-24T04:20:18.671Z,86.80
2018-08-24T04:22:45.846Z,86.90
2018-08-24T04:25:13.043Z,86.60
2018-08-24T04:27:40.195Z,85.90
2018-08-24T04:30:07.987Z,83.70
2018-08-24T04:32:35.191Z,82.20
2018-08-24T04:35:02.634Z,83.00
2018-08-24T04:37:29.795Z,84.60
2018-08-24T04:39:56.968Z,85.50
2018-08-24T04:42:24.140Z,85.70
2018-08-24T04:44:51.299Z,85.90
2018-08-24T04:47:18.444Z,85.50
2018-08-24T04:49:45.603Z,86.10
2018-08-24T04:52:12.782Z,86.40
2018-08-24T04:54:39.915Z,87.10
2018-08-24T04:57:07.067Z,87.40
2018-08-24T04:59:34.203Z,88.20
2018-08-24T05:02:01.391Z,88.70
2018-08-24T05:04:28.582Z,88.80
2018-08-24T05:06:55.763Z,88.80
2018-08-24T05:09:22.907Z,89.20
2018-08-24T05:11:50.055Z,89.50
2018-08-24T05:14:17.199Z,89.80
2018-08-24T05:16:44.351Z,90.00
2018-08-24T05:19:11.487Z,88.90
2018-08-24T05:21:45.418Z,88.30
2018-08-24T05:24:12.563Z,88.20
2018-08-24T05:26:39.724Z,88.30
2018-08-24T05:29:06.868Z,87.80
2018-08-24T05:31:34.042Z,86.40
2018-08-24T05:34:01.750Z,85.50
2018-08-24T05:36:28.891Z,85.60
2018-08-24T05:38:56.043Z,85.10
2018-08-24T05:41:23.226Z,85.00
2018-08-24T05:43:50.372Z,84.80
2018-08-24T05:46:17.509Z,84.70
2018-08-24T05:48:44.666Z,85.10
2018-08-24T05:51:12.035Z,85.40
2018-08-24T05:53:39.191Z,85.40
2018-08-24T05:56:06.379Z,85.60
2018-08-24T05:58:33.528Z,85.40
2018-08-24T06:01:00.715Z,85.50
2018-08-24T06:06:02.611Z,86.60
2018-08-24T06:08:30.391Z,87.20
2018-08-24T06:10:57.695Z,87.30
2018-08-24T06:13:24.851Z,86.70
2018-08-24T06:15:52.088Z,86.90
2018-08-24T06:18:19.198Z,86.70
2018-08-24T06:20:46.385Z,86.70
2018-08-24T06:23:13.903Z,86.60
2018-08-24T06:25:41.051Z,85.30
2018-08-24T06:28:08.205Z,85.30
2018-08-24T06:30:35.379Z,85.50
2018-08-24T06:33:02.526Z,85.20
2018-08-24T06:35:29.680Z,85.00
2018-08-24T06:37:56.828Z,85.80
2018-08-24T06:40:23.979Z,85.40
2018-08-24T06:42:51.127Z,85.00
2018-08-24T06:45:18.279Z,84.60
2018-08-24T06:47:45.438Z,83.40
2018-08-24T06:50:12.583Z,82.60
2018-08-24T06:52:39.819Z,82.50
2018-08-24T06:55:06.997Z,81.40
2018-08-24T06:57:34.149Z,79.50
2018-08-24T07:00:01.834Z,78.00
2018-08-24T07:02:29.019Z,76.40
2018-08-24T07:04:56.281Z,75.10
2018-08-24T07:07:23.438Z,74.20
2018-08-24T07:09:50.764Z,72.80
2018-08-24T07:12:17.935Z,72.70
2018-08-24T07:14:45.183Z,71.20
2018-08-24T07:17:12.448Z,71.00
2018-08-24T07:19:39.616Z,69.40
2018-08-24T07:22:07.040Z,68.60
2018-08-24T07:24:34.195Z,68.40
2018-08-24T07:27:01.404Z,68.50
2018-08-24T07:29:35.315Z,69.60
2018-08-24T07:32:02.763Z,68.40
2018-08-24T07:34:29.928Z,69.80
2018-08-24T07:36:57.080Z,69.30
2018-08-24T07:39:24.423Z,70.60
2018-08-24T07:41:51.452Z,69.60
2018-08-24T07:44:18.576Z,68.40
2018-08-24T07:46:45.750Z,68.30
2018-08-24T07:49:12.899Z,68.50
2018-08-24T07:51:40.052Z,69.90
2018-08-24T07:54:07.243Z,71.30
2018-08-24T07:56:34.399Z,68.70
2018-08-24T07:59:02.193Z,67.70
2018-08-24T08:01:29.732Z,64.50
2018-08-24T08:03:58.459Z,64.00
2018-08-24T08:06:25.603Z,64.70
2018-08-24T08:08:52.753Z,64.50
2018-08-24T08:11:19.919Z,65.00
2018-08-24T08:13:47.091Z,64.80
2018-08-24T08:16:14.243Z,64.50
2018-08-24T08:18:41.476Z,64.50
2018-08-24T08:21:08.564Z,64.30
2018-08-24T08:23:36.751Z,62.60
2018-08-24T08:26:03.915Z,63.90
2018-08-24T08:28:31.064Z,63.50
2018-08-24T08:30:58.520Z,63.40
2018-08-24T08:33:25.679Z,63.50
2018-08-24T08:35:53.023Z,63.90
2018-08-24T08:38:20.215Z,64.00
2018-08-24T08:40:47.378Z,63.90
2018-08-24T08:43:14.530Z,62.50
2018-08-24T08:45:42.769Z,62.30
2018-08-24T08:48:09.907Z,61.60
2018-08-24T08:50:37.063Z,60.90
2018-08-24T08:53:04.231Z,61.70
2018-08-24T08:55:31.390Z,65.50
2018-08-24T08:57:58.542Z,66.20
2018-08-24T09:00:25.771Z,67.30
2018-08-24T09:02:52.920Z,68.30
2018-08-24T09:05:20.078Z,67.30
2018-08-24T09:07:47.329Z,65.30
2018-08-24T09:10:21.304Z,63.50
2018-08-24T09:12:48.468Z,65.00
2018-08-24T09:15:15.648Z,66.20
2018-08-24T09:17:48.439Z,66.80
2018-08-24T09:20:21.236Z,69.70
2018-08-24T09:22:54.438Z,75.30
2018-08-24T09:25:27.296Z,75.20
2018-08-24T09:29:02.735Z,74.40
2018-08-24T09:31:31.443Z,72.90
2018-08-24T09:33:58.639Z,71.10
2018-08-24T09:36:25.800Z,73.60
2018-08-24T09:38:53.071Z,74.60
2018-08-24T09:41:20.244Z,75.80
2018-08-24T09:43:53.303Z,74.80
2018-08-24T09:46:25.047Z,75.30
2018-08-24T09:48:58.025Z,78.40
2018-08-24T09:51:27.067Z,77.10
2018-08-24T09:53:59.919Z,76.20
2018-08-24T09:56:27.978Z,76.90
2018-08-24T09:58:55.247Z,77.50
2018-08-24T10:01:28.303Z,77.80
2018-08-24T10:04:01.387Z,78.70
2018-08-24T10:06:34.225Z,77.60
2018-08-24T10:09:01.348Z,79.20
2018-08-24T10:11:28.478Z,77.10
2018-08-24T10:13:55.639Z,77.30
2018-08-24T10:16:22.779Z,78.90
2018-08-24T10:18:49.944Z,74.80
2018-08-24T10:21:17.091Z,74.20
2018-08-24T10:23:44.251Z,76.50
2018-08-24T10:26:11.400Z,74.60
2018-08-24T10:28:38.544Z,72.50
2018-08-24T10:31:05.702Z,71.20
2018-08-24T10:33:32.834Z,72.90
2018-08-24T10:35:59.988Z,71.80
2018-08-24T10:38:27.131Z,72.80
2018-08-24T10:40:54.339Z,73.20
2018-08-24T10:43:21.435Z,72.80
2018-08-24T10:45:48.588Z,71.40
2018-08-24T10:48:15.737Z,71.00
2018-08-24T10:50:42.899Z,72.80
2018-08-24T10:53:10.035Z,73.30
2018-08-24T10:55:37.214Z,70.70
2018-08-24T10:58:04.429Z,70.30
2018-08-24T11:00:31.926Z,69.40
2018-08-24T11:02:59.065Z,68.90
2018-08-24T11:05:26.241Z,69.00
2018-08-24T11:07:53.365Z,68.30
2018-08-24T11:10:20.510Z,68.60
2018-08-24T11:12:47.675Z,67.70
2018-08-24T11:15:14.822Z,67.60
2018-08-24T11:17:47.868Z,66.90
2018-08-24T11:20:15.154Z,67.40
2018-08-24T11:22:42.283Z,67.20
2018-08-24T11:25:09.440Z,66.20
2018-08-24T11:27:36.582Z,65.70
2018-08-24T11:30:04.464Z,66.30
2018-08-24T11:32:31.635Z,65.50
2018-08-24T11:34:58.827Z,65.50
2018-08-24T11:37:25.983Z,63.20
2018-08-24T11:39:53.376Z,65.70
2018-08-24T11:42:20.541Z,63.60
2018-08-24T11:44:47.732Z,64.80
2018-08-24T11:47:18.267Z,64.00
2018-08-24T11:49:46.679Z,60.80
2018-08-24T11:52:13.888Z,61.70
2018-08-24T11:54:41.067Z,61.40
2018-08-24T11:57:08.215Z,60.80
2018-08-24T11:59:35.367Z,60.10
2018-08-24T12:02:02.581Z,58.80
2018-08-24T12:04:29.711Z,57.20
2018-08-24T12:06:57.050Z,58.00
2018-08-24T12:09:24.219Z,58.40
2018-08-24T12:11:51.366Z,57.10
2018-08-24T12:14:18.540Z,56.80
2018-08-24T12:16:45.691Z,57.10
2018-08-24T12:19:12.834Z,55.80
2018-08-24T12:21:40.059Z,55.80
2018-08-24T12:24:07.135Z,57.50
2018-08-24T12:26:34.275Z,56.00
2018-08-24T12:29:01.492Z,57.90
2018-08-24T12:31:28.763Z,55.30
2018-08-24T12:36:29.955Z,57.40
2018-08-24T12:38:57.103Z,56.60
2018-08-24T12:41:24.282Z,55.90
2018-08-24T12:43:51.408Z,57.20
2018-08-24T12:46:18.586Z,57.20
2018-08-24T12:48:45.759Z,57.80
2018-08-24T12:51:12.915Z,57.50
2018-08-24T12:53:40.067Z,57.40
2018-08-24T12:56:22.516Z,55.60
2018-08-24T12:58:50.547Z,53.70
2018-08-24T13:01:18.107Z,54.10
2018-08-24T13:03:45.254Z,57.20
2018-08-24T13:06:12.434Z,57.30
2018-08-24T13:08:39.793Z,55.00
2018-08-24T13:11:06.987Z,53.40
2018-08-24T13:13:34.254Z,52.40
2018-08-24T13:16:01.408Z,51.50
2018-08-24T13:18:28.639Z,51.00
2018-08-24T13:20:55.808Z,49.60
2018-08-24T13:23:22.994Z,51.00
2018-08-24T13:25:50.154Z,52.50
2018-08-24T13:28:17.298Z,52.70
2018-08-24T13:30:44.448Z,50.40
2018-08-24T13:33:11.614Z,51.80
2018-08-24T13:35:38.779Z,51.50
2018-08-24T13:38:06.279Z,49.50
2018-08-24T13:40:33.418Z,50.70
2018-08-24T13:43:00.570Z,49.40
2018-08-24T13:45:27.943Z,51.40
2018-08-24T13:47:55.103Z,50.70
2018-08-24T13:50:22.256Z,51.40
2018-08-24T13:52:49.426Z,48.50
2018-08-24T13:55:16.602Z,47.10
2018-08-24T13:57:43.752Z,49.10
2018-08-24T14:00:10.907Z,48.80
2018-08-24T14:02:38.071Z,48.10
2018-08-24T14:05:05.240Z,50.10
2018-08-24T14:07:32.912Z,51.00
2018-08-24T14:10:00.062Z,52.20
2018-08-24T14:12:27.224Z,50.60
2018-08-24T14:14:54.370Z,50.70
2018-08-24T14:17:21.542Z,50.40
2018-08-24T14:19:48.693Z,49.20
2018-08-24T14:22:15.855Z,50.70
2018-08-24T14:24:43.008Z,52.10
2018-08-24T14:27:10.156Z,51.10
2018-08-24T14:29:37.327Z,51.70
2018-08-24T14:32:04.572Z,51.40
2018-08-24T14:34:31.724Z,52.70
2018-08-24T14:36:58.911Z,50.80
2018-08-24T14:39:26.055Z,50.80
2018-08-24T14:41:53.215Z,51.20
2018-08-24T14:44:27.135Z,52.40
2018-08-24T14:46:54.294Z,51.60
2018-08-24T14:49:21.427Z,51.50
2018-08-24T14:51:48.599Z,52.20
2018-08-24T14:54:15.836Z,51.30
2018-08-24T14:59:17.082Z,52.00
2018-08-24T15:01:44.223Z,51.90
2018-08-24T15:04:11.395Z,50.30
2018-08-24T15:06:38.538Z,50.80
2018-08-24T15:09:07.579Z,51.10
2018-08-24T15:11:34.716Z,51.40
2018-08-24T15:14:01.867Z,52.10
2018-08-24T15:16:29.059Z,52.30
2018-08-24T15:18:56.195Z,52.60
2018-08-24T15:21:23.327Z,53.00
2018-08-24T15:23:50.482Z,51.80
2018-08-24T15:26:17.626Z,51.80
2018-08-24T15:28:44.817Z,52.20
2018-08-24T15:31:11.955Z,52.20
2018-08-24T15:33:39.099Z,51.00
2018-08-24T15:36:06.267Z,51.10
2018-08-24T15:38:33.435Z,50.90
2018-08-24T15:41:07.427Z,51.80
2018-08-24T15:43:34.571Z,53.90
2018-08-24T15:46:01.716Z,55.10
2018-08-24T15:48:28.871Z,55.40
2018-08-24T15:50:56.035Z,55.60
2018-08-24T15:53:23.199Z,54.90
2018-08-24T15:55:50.439Z,55.70
2018-08-24T15:58:17.605Z,55.00
2018-08-24T16:00:44.775Z,55.20
2018-08-24T16:03:11.923Z,55.60
2018-08-24T16:05:39.067Z,55.50
2018-08-24T16:08:06.231Z,55.30
2018-08-24T16:10:33.372Z,54.70
2018-08-24T16:13:00.535Z,54.40
2018-08-24T16:15:27.679Z,54.80
2018-08-24T16:18:00.886Z,54.90
2018-08-24T16:20:27.900Z,55.20
2018-08-24T16:22:55.088Z,55.20
2018-08-24T16:25:22.314Z,55.00
2018-08-24T16:27:49.419Z,55.20
2018-08-24T16:30:16.601Z,54.90
2018-08-24T16:32:43.796Z,55.50
2018-08-24T16:35:10.851Z,55.80
2018-08-24T16:37:38.025Z,55.80
2018-08-24T16:40:05.500Z,55.60
2018-08-24T16:42:32.631Z,56.20
2018-08-24T16:44:59.771Z,56.00
2018-08-24T16:47:26.907Z,55.80
2018-08-24T16:49:54.099Z,55.80
2018-08-24T16:52:21.251Z,55.40
2018-08-24T16:54:48.382Z,56.00
2018-08-24T16:57:15.572Z,55.50
2018-08-24T16:59:42.687Z,55.60
2018-08-24T17:02:09.830Z,55.10
2018-08-24T17:04:36.975Z,55.30
2018-08-24T17:07:04.150Z,55.50
2018-08-24T17:09:31.311Z,55.80
2018-08-24T17:11:58.464Z,56.00
2018-08-24T17:14:25.709Z,55.70
2018-08-24T17:16:52.847Z,55.20
2018-08-24T17:19:20.031Z,54.70
2018-08-24T17:21:47.216Z,54.50
2018-08-24T17:24:14.371Z,55.20
2018-08-24T17:26:48.396Z,55.40
2018-08-24T17:29:15.583Z,54.10
2018-08-24T17:31:42.730Z,54.50
2018-08-24T17:34:09.891Z,53.70
2018-08-24T17:36:37.064Z,52.20
2018-08-24T17:39:07.642Z,51.40
2018-08-24T17:41:34.799Z,51.20
2018-08-24T17:44:02.000Z,48.70
2018-08-24T17:46:29.155Z,48.30
2018-08-24T17:48:56.427Z,47.00
2018-08-24T17:51:23.575Z,47.50
2018-08-24T17:53:50.728Z,47.00
2018-08-24T17:56:17.890Z,45.90
2018-08-24T17:58:45.043Z,44.70
2018-08-24T18:01:12.513Z,44.70
2018-08-24T18:03:39.767Z,44.60
2018-08-24T18:06:07.040Z,44.60
2018-08-24T18:08:34.196Z,43.70
2018-08-24T18:11:01.819Z,44.00
2018-08-24T18:13:28.971Z,44.40
2018-08-24T18:15:56.138Z,43.30
2018-08-24T18:18:23.303Z,43.50
2018-08-24T18:20:50.479Z,43.10
2018-08-24T18:23:17.703Z,43.70
2018-08-24T18:25:44.884Z,44.20
2018-08-24T18:28:12.031Z,43.90
2018-08-24T18:30:39.184Z,44.20
2018-08-24T18:33:07.403Z,44.40
2018-08-24T18:35:34.664Z,44.50
2018-08-24T18:38:01.935Z,44.80
2018-08-24T18:40:29.087Z,44.30
2018-08-24T18:42:56.234Z,44.00
2018-08-24T18:45:23.367Z,45.20
2018-08-24T18:47:50.519Z,44.70
2018-08-24T18:50:17.707Z,44.30
2018-08-24T18:52:44.868Z,44.70
2018-08-24T18:55:12.019Z,45.20
2018-08-24T19:00:13.375Z,43.70
2018-08-24T19:02:40.588Z,44.70
2018-08-24T19:05:14.534Z,44.30
2018-08-24T19:07:41.647Z,44.30
2018-08-24T19:10:08.795Z,43.20
2018-08-24T19:12:35.942Z,43.20
2018-08-24T19:15:03.241Z,43.00
2018-08-24T19:17:36.222Z,43.10
2018-08-24T19:20:09.235Z,43.20
2018-08-24T19:22:36.424Z,43.30
2018-08-24T19:25:03.595Z,43.10
2018-08-24T19:27:36.563Z,43.00
2018-08-24T19:30:09.372Z,43.50
2018-08-24T19:32:36.862Z,43.70
2018-08-24T19:35:04.078Z,43.70
2018-08-24T19:37:31.291Z,44.00
2018-08-24T19:40:04.267Z,44.40
2018-08-24T19:42:31.414Z,44.10
2018-08-24T19:44:58.546Z,44.10
2018-08-24T19:47:31.424Z,44.20
2018-08-24T19:49:58.565Z,44.10
2018-08-24T19:52:25.790Z,44.40
2018-08-24T19:54:52.940Z,44.70
2018-08-24T19:57:25.754Z,44.70
2018-08-24T19:59:52.911Z,44.50
2018-08-24T20:02:20.063Z,44.90
2018-08-24T20:04:47.251Z,45.20
2018-08-24T20:07:20.303Z,44.60
2018-08-24T20:09:53.183Z,44.90
2018-08-24T20:12:20.327Z,45.00
2018-08-24T20:14:53.139Z,45.00
2018-08-24T20:17:26.015Z,44.80
2018-08-24T20:19:53.190Z,45.10
2018-08-24T20:22:20.359Z,45.60
2018-08-24T20:24:47.495Z,45.70
2018-08-24T20:27:14.765Z,45.50
2018-08-24T20:29:41.899Z,45.10
2018-08-24T20:32:09.058Z,45.20
2018-08-24T20:34:36.203Z,45.50
2018-08-24T20:37:04.417Z,45.50
2018-08-24T20:39:31.564Z,45.60
2018-08-24T20:41:58.712Z,45.60
2018-08-24T20:44:25.931Z,45.60
2018-08-24T20:46:53.071Z,45.20
2018-08-24T20:49:20.219Z,45.50
2018-08-24T20:51:47.384Z,45.60
2018-08-24T20:54:14.534Z,45.70
2018-08-24T20:56:41.675Z,45.40
2018-08-24T20:59:08.956Z,45.40
2018-08-24T21:01:36.107Z,45.80
2018-08-24T21:04:03.288Z,45.50
2018-08-24T21:06:30.427Z,45.50
2018-08-24T21:08:57.580Z,45.70
2018-08-24T21:11:24.790Z,46.00
2018-08-24T21:13:51.970Z,46.20
2018-08-24T21:16:19.105Z,45.90
2018-08-24T21:18:46.263Z,46.40
2018-08-24T21:21:13.419Z,46.50
2018-08-24T21:23:40.648Z,46.80
2018-08-24T21:26:07.760Z,46.70
2018-08-24T21:28:35.052Z,47.20
2018-08-24T21:31:02.294Z,46.90
2018-08-24T21:33:29.447Z,46.40
2018-08-24T21:35:56.602Z,46.60
2018-08-24T21:38:23.796Z,46.10
2018-08-24T21:40:50.935Z,46.90
2018-08-24T21:43:18.108Z,46.70
2018-08-24T21:45:45.259Z,46.70
2018-08-24T21:48:12.404Z,46.40
2018-08-24T21:50:39.539Z,46.80
2018-08-24T21:53:06.807Z,46.40
2018-08-24T21:55:33.955Z,46.80
2018-08-24T21:58:01.160Z,46.70
2018-08-24T22:00:28.356Z,46.90
2018-08-24T22:02:55.520Z,46.80
2018-08-24T22:05:22.675Z,47.00
2018-08-24T22:07:49.811Z,47.20
2018-08-24T22:10:16.972Z,46.70
2018-08-24T22:12:44.115Z,47.10
2018-08-24T22:15:11.277Z,47.40
2018-08-24T22:17:38.446Z,48.30
2018-08-24T22:20:05.807Z,48.20
2018-08-24T22:22:32.943Z,49.40
2018-08-24T22:25:00.088Z,48.80
2018-08-24T22:27:27.253Z,49.00
2018-08-24T22:29:54.425Z,47.80
2018-08-24T22:32:21.552Z,48.10
2018-08-24T22:34:55.524Z,48.10
2018-08-24T22:37:22.671Z,48.70
2018-08-24T22:39:49.819Z,48.80
2018-08-24T22:42:23.659Z,49.30
2018-08-24T22:44:50.808Z,49.20
2018-08-24T22:47:17.939Z,49.00
2018-08-24T22:49:45.087Z,49.60
2018-08-24T22:52:12.218Z,49.30
2018-08-24T22:54:39.362Z,49.20
2018-08-24T22:57:06.537Z,50.10
2018-08-24T22:59:40.419Z,49.60
2018-08-24T23:02:07.571Z,49.40
2018-08-24T23:07:08.704Z,49.40
2018-08-24T23:09:35.875Z,49.10
2018-08-24T23:12:03.107Z,49.40
2018-08-24T23:14:30.359Z,49.70
2018-08-24T23:16:57.494Z,50.10
2018-08-24T23:19:24.681Z,50.20
2018-08-24T23:21:51.791Z,50.70
2018-08-24T23:24:18.975Z,50.70
2018-08-24T23:26:46.107Z,51.20
2018-08-24T23:29:13.259Z,51.60
2018-08-24T23:31:47.299Z,51.80
2018-08-24T23:34:14.637Z,52.00
2018-08-24T23:36:41.621Z,52.00
2018-08-24T23:39:09.957Z,52.10
2018-08-24T23:41:37.208Z,51.80
2018-08-24T23:44:04.408Z,51.00
2018-08-24T23:46:31.576Z,50.60
2018-08-24T23:48:58.764Z,50.60
2018-08-24T23:51:25.936Z,51.10
2018-08-24T23:53:53.155Z,50.70
2018-08-24T23:56:20.262Z,50.80
2018-08-24T23:58:47.436Z,50.60
